Time;durP1;ratioP1;P1;durP2;ratioP2;P2;SDS_P1;SDS_P2;PMS_P1;PMS_P2;Temp;Humidity;BMP_temperature;BMP_pressure;BME280_temperature;BME280_humidity;BME280_pressure;Samples;Min_cycle;Max_cycle;Signal;HPM_P1;HPM_P2
2021/06/27 00:00:34;;;;;;;19.48;13.18;;;;;;;;;;1471960;40;20037;-60
2021/06/27 00:01:55;;;;;;;23.02;13.52;;;;;;;;;;1475671;40;20045;-61
2021/06/27 00:02:57;;;;;;;21.13;12.85;;;;;;;;;;1474492;40;20061;-62
2021/06/27 00:03:58;;;;;;;22.58;14.13;;;;;;;;;;1471942;40;20310;-60
2021/06/27 00:05:00;;;;;;;24.67;14.55;;;;;;;;;;1471911;40;20037;-60
2021/06/27 00:06:01;;;;;;;23.38;15.02;;;;;;;;;;1471920;40;20033;-60
2021/06/27 00:07:05;;;;;;;22.70;14.93;;;;;;;;;;1472147;40;20042;-60
2021/06/27 00:08:08;;;;;;;22.00;14.85;;;;;;;;;;1472140;40;20030;-61
2021/06/27 00:09:09;;;;;;;23.70;14.90;;;;;;;;;;1472162;40;20141;-60
2021/06/27 00:10:15;;;;;;;26.63;14.45;;;;;;;;;;1471973;40;20376;-61
2021/06/27 00:11:16;;;;;;;21.63;14.18;;;;;;;;;;1472151;40;20037;-60
2021/06/27 00:12:18;;;;;;;20.92;13.98;;;;;;;;;;1472615;40;20073;-62
2021/06/27 00:13:19;;;;;;;24.88;15.73;;;;;;;;;;1472570;40;20029;-60
2021/06/27 00:14:21;;;;;;;34.90;21.02;;;;;;;;;;1472595;40;20041;-60
2021/06/27 00:15:24;;;;;;;25.50;15.60;;;;;;;;;;1472691;40;20398;-60
2021/06/27 00:16:28;;;;;;;22.15;14.50;;;;;;;;;;1472584;40;20331;-60
2021/06/27 00:17:29;;;;;;;22.08;14.95;;;;;;;;;;1472490;40;20409;-60
2021/06/27 00:18:31;;;;;;;20.45;14.18;;;;;;;;;;1472652;40;20038;-62
2021/06/27 00:19:32;;;;;;;22.75;14.68;;;;;;;;;;1472791;40;20041;-60
2021/06/27 00:20:36;;;;;;;26.70;16.05;;;;;;;;;;1472938;40;20030;-60
2021/06/27 00:21:37;;;;;;;28.65;14.95;;;;;;;;;;1472751;40;20030;-60
2021/06/27 00:22:40;;;;;;;31.08;15.30;;;;;;;;;;1472521;40;20034;-61
2021/06/27 00:23:45;;;;;;;23.92;15.00;;;;;;;;;;1472587;40;20037;-60
2021/06/27 00:24:48;;;;;;;28.63;14.98;;;;;;;;;;1472698;40;20030;-60
2021/06/27 00:25:49;;;;;;;26.60;15.73;;;;;;;;;;1472004;40;20397;-60
2021/06/27 00:26:51;;;;;;;27.98;15.85;;;;;;;;;;1472137;40;20038;-60
2021/06/27 00:27:53;;;;;;;23.88;14.85;;;;;;;;;;1472550;40;20382;-60
2021/06/27 00:28:55;;;;;;;23.80;14.45;;;;;;;;;;1472632;40;20038;-61
2021/06/27 00:29:56;;;;;;;31.25;17.10;;;;;;;;;;1472501;40;20131;-61
2021/06/27 00:30:59;;;;;;;23.02;15.30;;;;;;;;;;1472729;40;20034;-61
2021/06/27 00:32:00;;;;;;;26.20;15.65;;;;;;;;;;1472580;40;20136;-61
2021/06/27 00:33:03;;;;;;;21.65;14.57;;;;;;;;;;1472659;40;20409;-61
2021/06/27 00:34:04;;;;;;;23.75;15.05;;;;;;;;;;1472552;40;20294;-60
2021/06/27 00:35:07;;;;;;;23.65;15.18;;;;;;;;;;1472559;40;20033;-60
2021/06/27 00:36:09;;;;;;;22.67;15.48;;;;;;;;;;1472771;40;20030;-60
2021/06/27 00:37:10;;;;;;;21.92;14.63;;;;;;;;;;1472586;40;20456;-60
2021/06/27 00:38:13;;;;;;;23.58;15.05;;;;;;;;;;1472630;40;20023;-61
2021/06/27 00:39:15;;;;;;;23.58;15.27;;;;;;;;;;1472497;40;20405;-61
2021/06/27 00:40:18;;;;;;;28.33;15.82;;;;;;;;;;1472640;40;20290;-60
2021/06/27 00:41:20;;;;;;;26.77;15.30;;;;;;;;;;1472465;40;20042;-60
2021/06/27 00:42:21;;;;;;;23.85;15.32;;;;;;;;;;1472421;40;20393;-60
2021/06/27 00:43:23;;;;;;;22.45;14.93;;;;;;;;;;1472700;40;20034;-60
2021/06/27 00:44:24;;;;;;;21.15;15.15;;;;;;;;;;1472718;40;20108;-61
2021/06/27 00:45:29;;;;;;;24.45;16.58;;;;;;;;;;1472522;40;20380;-61
2021/06/27 00:46:30;;;;;;;25.23;15.45;;;;;;;;;;1472659;40;20026;-60
2021/06/27 00:47:33;;;;;;;23.17;14.57;;;;;;;;;;1472846;40;20290;-62
2021/06/27 00:48:34;;;;;;;20.77;15.23;;;;;;;;;;1472433;40;20026;-61
2021/06/27 00:49:36;;;;;;;21.83;14.82;;;;;;;;;;1472454;40;20034;-60
2021/06/27 00:50:41;;;;;;;24.52;15.10;;;;;;;;;;1472499;40;20041;-62
2021/06/27 00:51:43;;;;;;;21.23;14.25;;;;;;;;;;1472626;40;20030;-61
2021/06/27 00:52:44;;;;;;;21.92;15.05;;;;;;;;;;1472613;40;20037;-60
2021/06/27 00:53:47;;;;;;;25.77;14.40;;;;;;;;;;1472628;40;20042;-60
2021/06/27 00:54:48;;;;;;;21.05;14.85;;;;;;;;;;1472695;40;20037;-60
2021/06/27 00:55:55;;;;;;;23.20;14.50;;;;;;;;;;1472786;40;20297;-60
2021/06/27 00:56:56;;;;;;;19.13;14.27;;;;;;;;;;1472480;40;20030;-60
2021/06/27 00:57:58;;;;;;;22.02;14.35;;;;;;;;;;1472413;40;20030;-61
2021/06/27 00:58:59;;;;;;;24.38;15.10;;;;;;;;;;1472554;40;20037;-60
2021/06/27 01:00:01;;;;;;;19.55;14.88;;;;;;;;;;1472638;40;20034;-61
2021/06/27 01:01:05;;;;;;;21.83;14.13;;;;;;;;;;1472593;40;20034;-60
2021/06/27 01:02:07;;;;;;;20.75;14.65;;;;;;;;;;1472631;40;20034;-60
2021/06/27 01:03:08;;;;;;;21.77;14.27;;;;;;;;;;1472522;40;20034;-60
2021/06/27 01:04:10;;;;;;;21.77;14.20;;;;;;;;;;1472680;40;20062;-62
2021/06/27 01:05:13;;;;;;;19.05;14.00;;;;;;;;;;1472513;40;20042;-61
2021/06/27 01:06:15;;;;;;;23.20;14.13;;;;;;;;;;1472403;40;20279;-60
2021/06/27 01:07:16;;;;;;;21.10;14.32;;;;;;;;;;1472679;40;20034;-60
2021/06/27 01:08:18;;;;;;;20.88;14.23;;;;;;;;;;1472505;40;20309;-60
2021/06/27 01:09:20;;;;;;;29.15;15.30;;;;;;;;;;1472414;40;20401;-61
2021/06/27 01:10:22;;;;;;;19.00;14.05;;;;;;;;;;1472745;40;20061;-60
2021/06/27 01:11:23;;;;;;;25.83;15.15;;;;;;;;;;1472556;40;20034;-60
2021/06/27 01:12:24;;;;;;;19.35;13.63;;;;;;;;;;1472545;40;20034;-61
2021/06/27 01:13:25;;;;;;;19.55;13.48;;;;;;;;;;1472609;40;20038;-60
2021/06/27 01:14:28;;;;;;;20.55;13.98;;;;;;;;;;1472444;40;20386;-60
2021/06/27 01:15:29;;;;;;;18.60;13.43;;;;;;;;;;1472363;40;20025;-60
2021/06/27 01:16:30;;;;;;;22.00;13.75;;;;;;;;;;1472372;40;20049;-60
2021/06/27 01:17:31;;;;;;;22.15;14.02;;;;;;;;;;1472587;40;20041;-61
2021/06/27 01:18:33;;;;;;;21.80;13.80;;;;;;;;;;1472682;40;20297;-62
2021/06/27 01:19:34;;;;;;;19.33;13.70;;;;;;;;;;1472637;40;20046;-62
2021/06/27 01:20:39;;;;;;;17.42;13.45;;;;;;;;;;1472381;40;20030;-60
2021/06/27 01:21:42;;;;;;;19.65;13.43;;;;;;;;;;1472396;40;20034;-60
2021/06/27 01:22:44;;;;;;;22.50;14.25;;;;;;;;;;1472418;40;20030;-62
2021/06/27 01:23:48;;;;;;;25.65;14.73;;;;;;;;;;1472561;40;20033;-60
2021/06/27 01:24:50;;;;;;;19.38;13.38;;;;;;;;;;1472445;40;20089;-62
2021/06/27 01:25:53;;;;;;;22.42;13.65;;;;;;;;;;1472390;40;20030;-60
2021/06/27 01:26:55;;;;;;;21.75;13.90;;;;;;;;;;1472432;40;20372;-62
2021/06/27 01:27:57;;;;;;;22.77;14.20;;;;;;;;;;1472383;40;20149;-60
2021/06/27 01:29:00;;;;;;;21.90;13.77;;;;;;;;;;1472426;40;20030;-60
2021/06/27 01:30:00;;;;;;;22.38;14.32;;;;;;;;;;1472399;40;20034;-61
2021/06/27 01:31:02;;;;;;;24.92;14.30;;;;;;;;;;1472640;40;20030;-60
2021/06/27 01:32:10;;;;;;;23.13;13.65;;;;;;;;;;1472399;40;20053;-62
2021/06/27 01:33:14;;;;;;;16.58;12.57;;;;;;;;;;1472615;40;20022;-60
2021/06/27 01:34:15;;;;;;;22.17;12.38;;;;;;;;;;1472336;40;20283;-60
2021/06/27 01:35:20;;;;;;;20.85;13.82;;;;;;;;;;1472597;40;20030;-60
2021/06/27 01:36:21;;;;;;;17.60;12.70;;;;;;;;;;1471931;40;20018;-60
2021/06/27 01:37:24;;;;;;;23.02;14.13;;;;;;;;;;1471798;40;20481;-62
2021/06/27 01:38:27;;;;;;;25.40;16.10;;;;;;;;;;1472484;40;20041;-60
2021/06/27 01:39:27;;;;;;;23.95;16.33;;;;;;;;;;1472327;40;20390;-60
2021/06/27 01:40:31;;;;;;;26.40;14.02;;;;;;;;;;1472539;40;20026;-60
2021/06/27 01:41:32;;;;;;;20.63;13.48;;;;;;;;;;1472385;40;20037;-60
2021/06/27 01:42:34;;;;;;;22.92;16.52;;;;;;;;;;1472728;40;20041;-61
2021/06/27 01:43:35;;;;;;;24.73;16.58;;;;;;;;;;1472309;40;20037;-60
2021/06/27 01:44:37;;;;;;;25.70;17.95;;;;;;;;;;1472666;40;20037;-62
2021/06/27 01:45:39;;;;;;;27.80;19.23;;;;;;;;;;1472332;40;20326;-62
2021/06/27 01:46:41;;;;;;;27.70;18.48;;;;;;;;;;1472407;40;20049;-60
2021/06/27 01:47:43;;;;;;;28.77;19.17;;;;;;;;;;1472288;40;20030;-61
2021/06/27 01:48:44;;;;;;;24.67;18.98;;;;;;;;;;1472490;40;20080;-60
2021/06/27 01:49:45;;;;;;;31.30;20.05;;;;;;;;;;1472539;40;20026;-60
2021/06/27 01:50:49;;;;;;;28.67;18.02;;;;;;;;;;1472389;40;20394;-61
2021/06/27 01:51:50;;;;;;;23.60;16.92;;;;;;;;;;1472439;40;20030;-61
2021/06/27 01:52:54;;;;;;;21.40;15.00;;;;;;;;;;1472417;40;20037;-60
2021/06/27 01:53:55;;;;;;;21.73;14.98;;;;;;;;;;1472285;40;20279;-60
2021/06/27 01:54:57;;;;;;;23.33;15.68;;;;;;;;;;1472475;40;20037;-60
2021/06/27 01:56:06;;;;;;;22.42;15.88;;;;;;;;;;1472497;40;20041;-60
2021/06/27 01:57:07;;;;;;;25.10;15.85;;;;;;;;;;1472434;40;20030;-62
2021/06/27 01:58:09;;;;;;;24.20;15.10;;;;;;;;;;1472551;40;20108;-60
2021/06/27 01:59:12;;;;;;;25.38;15.68;;;;;;;;;;1472445;40;20026;-60
2021/06/27 02:00:15;;;;;;;24.60;15.35;;;;;;;;;;1472489;40;20030;-62
2021/06/27 02:01:18;;;;;;;21.80;15.52;;;;;;;;;;1472451;40;20026;-60
2021/06/27 02:02:19;;;;;;;21.08;15.55;;;;;;;;;;1472381;40;20037;-60
2021/06/27 02:03:21;;;;;;;22.40;16.02;;;;;;;;;;1472305;40;20037;-62
2021/06/27 02:04:27;;;;;;;23.75;16.38;;;;;;;;;;1472260;40;20038;-61
2021/06/27 02:05:31;;;;;;;28.58;16.75;;;;;;;;;;1472472;40;20034;-60
2021/06/27 02:06:35;;;;;;;22.00;14.63;;;;;;;;;;1472264;40;20390;-60
2021/06/27 02:07:37;;;;;;;23.70;15.73;;;;;;;;;;1472253;40;20279;-60
2021/06/27 02:08:41;;;;;;;23.95;16.10;;;;;;;;;;1472245;40;20030;-60
2021/06/27 02:09:49;;;;;;;21.17;15.00;;;;;;;;;;1472508;40;20033;-60
2021/06/27 02:10:49;;;;;;;21.50;14.95;;;;;;;;;;1472459;40;20030;-60
2021/06/27 02:11:52;;;;;;;21.58;14.45;;;;;;;;;;1472538;40;20030;-60
2021/06/27 02:12:55;;;;;;;22.20;14.32;;;;;;;;;;1472321;40;20030;-60
2021/06/27 02:13:57;;;;;;;19.67;13.77;;;;;;;;;;1472486;40;20078;-60
2021/06/27 02:14:58;;;;;;;20.55;13.50;;;;;;;;;;1472351;40;20057;-60
2021/06/27 02:16:00;;;;;;;20.20;13.38;;;;;;;;;;1472293;40;20406;-60
2021/06/27 02:17:01;;;;;;;21.73;13.20;;;;;;;;;;1472232;40;20041;-60
2021/06/27 02:18:17;;;;;;;18.02;12.55;;;;;;;;;;1472362;40;20045;-60
2021/06/27 02:19:18;;;;;;;22.63;12.82;;;;;;;;;;1472443;40;20026;-60
2021/06/27 02:20:20;;;;;;;23.10;13.40;;;;;;;;;;1472604;40;20286;-61
2021/06/27 02:21:23;;;;;;;19.60;13.07;;;;;;;;;;1472300;40;20387;-60
2021/06/27 02:22:25;;;;;;;21.48;13.15;;;;;;;;;;1472345;40;20034;-60
2021/06/27 02:23:27;;;;;;;21.73;12.85;;;;;;;;;;1472278;40;20030;-60
2021/06/27 02:24:32;;;;;;;21.73;12.80;;;;;;;;;;1472249;40;20030;-60
2021/06/27 02:25:33;;;;;;;19.10;12.73;;;;;;;;;;1472461;40;20026;-60
2021/06/27 02:26:36;;;;;;;20.30;12.45;;;;;;;;;;1472331;40;20033;-60
2021/06/27 02:27:37;;;;;;;19.80;12.52;;;;;;;;;;1472257;40;20133;-60
2021/06/27 02:28:39;;;;;;;20.65;12.05;;;;;;;;;;1472312;40;20390;-60
2021/06/27 02:29:40;;;;;;;19.05;12.50;;;;;;;;;;1472194;40;20086;-60
2021/06/27 02:30:42;;;;;;;19.15;12.65;;;;;;;;;;1472410;40;20126;-62
2021/06/27 02:31:49;;;;;;;20.00;11.90;;;;;;;;;;1472044;40;20034;-63
2021/06/27 02:32:51;;;;;;;19.00;11.85;;;;;;;;;;1472428;40;20133;-60
2021/06/27 02:33:52;;;;;;;21.75;12.35;;;;;;;;;;1472311;40;20030;-60
2021/06/27 02:34:54;;;;;;;15.85;11.82;;;;;;;;;;1471918;40;20037;-60
2021/06/27 02:35:55;;;;;;;16.60;11.45;;;;;;;;;;1472167;40;20030;-62
2021/06/27 02:36:57;;;;;;;19.38;12.10;;;;;;;;;;1472451;40;20026;-60
2021/06/27 02:37:58;;;;;;;18.15;11.48;;;;;;;;;;1472517;40;20030;-60
2021/06/27 02:39:00;;;;;;;20.42;12.30;;;;;;;;;;1472243;40;20294;-61
2021/06/27 02:40:04;;;;;;;19.23;11.82;;;;;;;;;;1472182;40;20423;-60
2021/06/27 02:41:07;;;;;;;17.45;11.70;;;;;;;;;;1472273;40;20294;-60
2021/06/27 02:42:08;;;;;;;18.10;11.90;;;;;;;;;;1472094;40;20038;-60
2021/06/27 02:43:10;;;;;;;18.35;11.82;;;;;;;;;;1472148;40;20034;-60
2021/06/27 02:44:11;;;;;;;17.20;11.43;;;;;;;;;;1472200;40;20155;-60
2021/06/27 02:45:14;;;;;;;15.57;11.25;;;;;;;;;;1472329;40;20030;-60
2021/06/27 02:46:15;;;;;;;20.30;11.70;;;;;;;;;;1472321;40;20389;-60
2021/06/27 02:47:17;;;;;;;18.13;11.70;;;;;;;;;;1472380;40;20034;-60
2021/06/27 02:48:18;;;;;;;16.27;11.45;;;;;;;;;;1472173;40;20026;-60
2021/06/27 02:49:22;;;;;;;19.27;12.13;;;;;;;;;;1472238;40;20082;-62
2021/06/27 02:50:24;;;;;;;20.73;13.02;;;;;;;;;;1472256;40;20134;-60
2021/06/27 02:51:26;;;;;;;23.40;13.55;;;;;;;;;;1472332;40;20030;-60
2021/06/27 02:52:26;;;;;;;18.98;12.02;;;;;;;;;;1472133;40;20408;-60
2021/06/27 02:53:28;;;;;;;19.90;12.18;;;;;;;;;;1472198;40;20047;-60
2021/06/27 02:54:29;;;;;;;22.40;12.95;;;;;;;;;;1472118;40;20112;-60
2021/06/27 02:55:40;;;;;;;19.90;12.30;;;;;;;;;;1472286;40;20483;-60
2021/06/27 02:56:41;;;;;;;18.55;11.98;;;;;;;;;;1472206;40;20041;-61
2021/06/27 02:57:43;;;;;;;17.95;11.07;;;;;;;;;;1472327;40;20030;-60
2021/06/27 02:58:47;;;;;;;18.90;11.88;;;;;;;;;;1472414;40;20026;-61
2021/06/27 02:59:49;;;;;;;16.35;11.45;;;;;;;;;;1472105;40;20302;-60
2021/06/27 03:00:50;;;;;;;16.55;11.82;;;;;;;;;;1472380;40;20026;-61
2021/06/27 03:01:52;;;;;;;19.98;11.63;;;;;;;;;;1472364;40;20170;-60
2021/06/27 03:02:52;;;;;;;18.55;12.13;;;;;;;;;;1472295;40;20034;-60
2021/06/27 03:03:53;;;;;;;16.75;11.77;;;;;;;;;;1472364;40;20030;-60
2021/06/27 03:04:55;;;;;;;18.63;11.43;;;;;;;;;;1472288;40;20037;-60
2021/06/27 03:05:56;;;;;;;16.98;11.57;;;;;;;;;;1472107;40;20030;-60
2021/06/27 03:06:58;;;;;;;16.23;11.27;;;;;;;;;;1472254;40;20394;-60
2021/06/27 03:07:59;;;;;;;20.80;11.98;;;;;;;;;;1472178;40;20026;-60
2021/06/27 03:09:00;;;;;;;17.15;11.32;;;;;;;;;;1472223;40;20389;-60
2021/06/27 03:10:02;;;;;;;17.77;10.52;;;;;;;;;;1472315;40;20026;-62
2021/06/27 03:11:07;;;;;;;17.80;11.43;;;;;;;;;;1472187;40;20070;-60
2021/06/27 03:12:11;;;;;;;18.00;11.40;;;;;;;;;;1472326;40;20034;-60
2021/06/27 03:13:13;;;;;;;17.85;11.30;;;;;;;;;;1472160;40;20026;-60
2021/06/27 03:14:13;;;;;;;19.73;11.68;;;;;;;;;;1472080;40;20041;-60
2021/06/27 03:15:18;;;;;;;17.00;11.60;;;;;;;;;;1472149;40;20045;-59
2021/06/27 03:16:19;;;;;;;15.48;10.50;;;;;;;;;;1472400;40;20112;-60
2021/06/27 03:17:21;;;;;;;17.95;11.00;;;;;;;;;;1472373;40;20372;-60
2021/06/27 03:18:21;;;;;;;14.70;10.38;;;;;;;;;;1472231;40;20036;-60
2021/06/27 03:19:23;;;;;;;15.75;10.98;;;;;;;;;;1472251;40;20060;-60
2021/06/27 03:20:24;;;;;;;14.93;10.63;;;;;;;;;;1472257;40;20026;-60
2021/06/27 03:21:26;;;;;;;16.17;11.10;;;;;;;;;;1472425;40;20072;-60
2021/06/27 03:22:27;;;;;;;14.23;10.00;;;;;;;;;;1472022;40;20048;-60
2021/06/27 03:23:29;;;;;;;16.20;10.80;;;;;;;;;;1472304;40;20037;-60
2021/06/27 03:24:30;;;;;;;13.70;9.95;;;;;;;;;;1472245;40;20026;-60
2021/06/27 03:25:34;;;;;;;17.77;10.32;;;;;;;;;;1472391;40;20061;-57
2021/06/27 03:26:36;;;;;;;18.08;10.20;;;;;;;;;;1472081;40;20412;-57
2021/06/27 03:27:38;;;;;;;14.63;10.23;;;;;;;;;;1472204;40;20070;-57
2021/06/27 03:28:40;;;;;;;16.17;10.10;;;;;;;;;;1472072;40;20275;-57
2021/06/27 03:29:41;;;;;;;14.68;10.10;;;;;;;;;;1472250;40;20030;-57
2021/06/27 03:30:43;;;;;;;19.42;10.23;;;;;;;;;;1472286;40;20026;-58
2021/06/27 03:31:44;;;;;;;14.57;10.25;;;;;;;;;;1472055;40;20026;-59
2021/06/27 03:32:47;;;;;;;13.75;9.60;;;;;;;;;;1472078;40;20022;-57
2021/06/27 03:33:50;;;;;;;14.95;9.05;;;;;;;;;;1472325;40;20026;-57
2021/06/27 03:34:51;;;;;;;14.10;9.65;;;;;;;;;;1472230;40;20031;-58
2021/06/27 03:35:53;;;;;;;15.82;10.05;;;;;;;;;;1472063;40;20363;-57
2021/06/27 03:36:55;;;;;;;13.10;9.30;;;;;;;;;;1472021;40;20409;-57
2021/06/27 03:38:03;;;;;;;13.57;8.85;;;;;;;;;;1472145;40;20029;-57
2021/06/27 03:39:07;;;;;;;16.50;9.27;;;;;;;;;;1472398;40;20062;-58
2021/06/27 03:40:09;;;;;;;14.35;9.45;;;;;;;;;;1472010;40;20034;-58
2021/06/27 03:41:12;;;;;;;13.75;9.25;;;;;;;;;;1472235;40;20034;-57
2021/06/27 03:42:15;;;;;;;16.48;10.00;;;;;;;;;;1471954;40;20041;-57
2021/06/27 03:43:17;;;;;;;14.05;9.40;;;;;;;;;;1472256;40;20034;-58
2021/06/27 03:44:17;;;;;;;14.32;9.10;;;;;;;;;;1472271;40;20041;-58
2021/06/27 03:45:19;;;;;;;15.20;10.13;;;;;;;;;;1472053;40;20042;-57
2021/06/27 03:46:20;;;;;;;17.17;9.63;;;;;;;;;;1471520;40;20050;-56
2021/06/27 03:47:23;;;;;;;14.07;9.57;;;;;;;;;;1472088;40;20041;-57
2021/06/27 03:48:24;;;;;;;14.77;9.55;;;;;;;;;;1472179;40;20034;-57
2021/06/27 03:49:26;;;;;;;15.13;8.77;;;;;;;;;;1472338;40;20034;-58
2021/06/27 03:50:27;;;;;;;16.25;10.20;;;;;;;;;;1472248;40;20030;-58
2021/06/27 03:51:29;;;;;;;13.85;9.48;;;;;;;;;;1472139;40;20034;-57
2021/06/27 03:52:29;;;;;;;15.55;8.93;;;;;;;;;;1472062;40;20030;-57
2021/06/27 03:53:31;;;;;;;15.38;9.93;;;;;;;;;;1472351;40;20104;-57
2021/06/27 03:54:33;;;;;;;15.40;9.40;;;;;;;;;;1472022;40;20034;-58
2021/06/27 03:55:35;;;;;;;13.50;9.93;;;;;;;;;;1472108;40;20030;-58
2021/06/27 03:56:37;;;;;;;14.82;9.70;;;;;;;;;;1472209;40;20323;-57
2021/06/27 03:57:40;;;;;;;15.10;9.48;;;;;;;;;;1472259;40;20036;-57
2021/06/27 03:58:40;;;;;;;18.13;10.27;;;;;;;;;;1472006;40;20030;-57
2021/06/27 03:59:42;;;;;;;16.17;9.80;;;;;;;;;;1472187;40;20034;-57
2021/06/27 04:00:43;;;;;;;14.07;9.98;;;;;;;;;;1472031;40;20037;-57
2021/06/27 04:01:45;;;;;;;14.65;9.63;;;;;;;;;;1472167;40;20033;-57
2021/06/27 04:02:46;;;;;;;18.70;9.57;;;;;;;;;;1471976;40;20317;-57
2021/06/27 04:03:48;;;;;;;15.20;9.77;;;;;;;;;;1471979;40;20026;-57
2021/06/27 04:04:48;;;;;;;14.00;9.70;;;;;;;;;;1472050;40;20368;-57
2021/06/27 04:05:50;;;;;;;14.05;9.13;;;;;;;;;;1472358;40;20030;-57
2021/06/27 04:06:51;;;;;;;14.45;9.02;;;;;;;;;;1472042;40;20409;-58
2021/06/27 04:07:53;;;;;;;17.17;9.60;;;;;;;;;;1472014;40;20037;-60
2021/06/27 04:09:01;;;;;;;13.20;9.38;;;;;;;;;;1472145;40;20038;-59
2021/06/27 04:10:04;;;;;;;15.98;9.52;;;;;;;;;;1472226;40;20030;-59
2021/06/27 04:11:05;;;;;;;14.32;9.82;;;;;;;;;;1471907;40;20311;-60
2021/06/27 04:12:08;;;;;;;17.33;10.38;;;;;;;;;;1472092;40;20034;-60
2021/06/27 04:13:10;;;;;;;14.95;9.23;;;;;;;;;;1471909;40;20026;-60
2021/06/27 04:14:12;;;;;;;14.00;9.23;;;;;;;;;;1472155;40;20034;-60
2021/06/27 04:15:13;;;;;;;17.63;9.45;;;;;;;;;;1471903;40;20031;-60
2021/06/27 04:16:14;;;;;;;13.50;9.07;;;;;;;;;;1471935;40;20030;-60
2021/06/27 04:17:20;;;;;;;16.33;9.27;;;;;;;;;;1472108;40;20037;-60
2021/06/27 04:18:23;;;;;;;15.07;8.90;;;;;;;;;;1471867;40;20084;-60
2021/06/27 04:19:24;;;;;;;14.82;10.00;;;;;;;;;;1471916;40;20067;-60
2021/06/27 04:20:26;;;;;;;15.82;9.43;;;;;;;;;;1471938;40;20034;-60
2021/06/27 04:21:27;;;;;;;17.15;9.80;;;;;;;;;;1471919;40;20030;-60
2021/06/27 04:22:28;;;;;;;14.27;8.98;;;;;;;;;;1472018;40;20038;-58
2021/06/27 04:23:32;;;;;;;13.73;9.10;;;;;;;;;;1471890;40;20033;-60
2021/06/27 04:24:32;;;;;;;15.18;9.57;;;;;;;;;;1472059;40;20041;-59
2021/06/27 04:25:36;;;;;;;16.40;9.60;;;;;;;;;;1471881;40;20409;-58
2021/06/27 04:26:36;;;;;;;12.93;8.75;;;;;;;;;;1472107;40;20030;-58
2021/06/27 04:27:39;;;;;;;13.88;9.50;;;;;;;;;;1471945;40;20303;-58
2021/06/27 04:28:41;;;;;;;16.27;9.85;;;;;;;;;;1471866;40;20306;-60
2021/06/27 04:29:43;;;;;;;14.63;8.75;;;;;;;;;;1472082;40;20034;-60
2021/06/27 04:30:43;;;;;;;12.13;8.75;;;;;;;;;;1472026;40;20035;-58
2021/06/27 04:31:45;;;;;;;13.25;8.25;;;;;;;;;;1471962;40;20378;-60
2021/06/27 04:32:46;;;;;;;15.30;9.02;;;;;;;;;;1472059;40;20121;-60
2021/06/27 04:33:48;;;;;;;12.73;8.00;;;;;;;;;;1471854;40;20046;-58
2021/06/27 04:34:49;;;;;;;17.77;8.70;;;;;;;;;;1472054;40;20034;-58
2021/06/27 04:35:51;;;;;;;13.65;8.88;;;;;;;;;;1471831;40;20275;-60
2021/06/27 04:36:52;;;;;;;12.35;8.65;;;;;;;;;;1471818;40;20030;-60
2021/06/27 04:37:54;;;;;;;13.20;8.15;;;;;;;;;;1471832;40;20034;-58
2021/06/27 04:38:54;;;;;;;12.80;8.15;;;;;;;;;;1471933;40;20119;-58
2021/06/27 04:39:56;;;;;;;13.25;7.75;;;;;;;;;;1471831;40;20374;-60
2021/06/27 04:40:57;;;;;;;13.25;7.93;;;;;;;;;;1471988;40;20030;-58
2021/06/27 04:41:59;;;;;;;13.45;8.15;;;;;;;;;;1471973;40;20300;-59
2021/06/27 04:43:00;;;;;;;11.52;8.10;;;;;;;;;;1471842;40;20023;-59
2021/06/27 04:44:03;;;;;;;10.70;7.68;;;;;;;;;;1472057;40;20389;-60
2021/06/27 04:45:06;;;;;;;11.07;7.68;;;;;;;;;;1471825;40;20301;-58
2021/06/27 04:46:08;;;;;;;10.73;7.57;;;;;;;;;;1471873;40;20053;-58
2021/06/27 04:47:09;;;;;;;14.13;8.57;;;;;;;;;;1471840;40;20026;-58
2021/06/27 04:48:12;;;;;;;11.73;8.32;;;;;;;;;;1472017;40;20038;-60
2021/06/27 04:49:13;;;;;;;16.38;8.02;;;;;;;;;;1471964;40;20119;-58
2021/06/27 04:50:15;;;;;;;11.77;7.63;;;;;;;;;;1472017;40;20042;-60
2021/06/27 04:51:16;;;;;;;12.63;7.65;;;;;;;;;;1471994;40;20033;-58
2021/06/27 04:52:18;;;;;;;14.23;7.53;;;;;;;;;;1471974;40;20309;-59
2021/06/27 04:53:19;;;;;;;13.77;7.82;;;;;;;;;;1472033;40;20038;-58
2021/06/27 04:54:21;;;;;;;13.73;7.80;;;;;;;;;;1471874;40;20046;-58
2021/06/27 04:55:22;;;;;;;15.20;8.20;;;;;;;;;;1471817;40;20052;-61
2021/06/27 04:56:24;;;;;;;12.38;6.95;;;;;;;;;;1471778;40;20026;-60
2021/06/27 04:57:25;;;;;;;11.60;7.75;;;;;;;;;;1471898;40;20310;-60
2021/06/27 04:58:28;;;;;;;11.10;7.05;;;;;;;;;;1472610;40;20030;-60
2021/06/27 04:59:30;;;;;;;11.85;7.00;;;;;;;;;;1472635;40;20030;-60
2021/06/27 05:00:32;;;;;;;13.98;7.10;;;;;;;;;;1472664;40;20091;-59
2021/06/27 05:01:33;;;;;;;9.80;6.70;;;;;;;;;;1472554;40;20038;-61
2021/06/27 05:02:35;;;;;;;10.60;6.90;;;;;;;;;;1471937;40;20420;-60
2021/06/27 05:03:36;;;;;;;10.88;6.80;;;;;;;;;;1472120;40;20030;-60
2021/06/27 05:04:37;;;;;;;12.95;7.35;;;;;;;;;;1472631;40;20030;-60
2021/06/27 05:05:38;;;;;;;13.65;6.78;;;;;;;;;;1472436;40;20394;-60
2021/06/27 05:06:40;;;;;;;12.05;7.22;;;;;;;;;;1472594;40;20037;-60
2021/06/27 05:07:41;;;;;;;12.25;7.55;;;;;;;;;;1472620;40;20108;-60
2021/06/27 05:08:43;;;;;;;11.00;7.07;;;;;;;;;;1472647;40;20464;-61
2021/06/27 05:09:44;;;;;;;10.55;7.43;;;;;;;;;;1472600;40;20037;-60
2021/06/27 05:10:45;;;;;;;12.02;7.57;;;;;;;;;;1472498;40;20037;-56
2021/06/27 05:11:46;;;;;;;13.00;7.22;;;;;;;;;;1472561;40;20038;-58
2021/06/27 05:12:48;;;;;;;10.93;6.40;;;;;;;;;;1472407;40;20037;-56
2021/06/27 05:13:49;;;;;;;13.38;7.63;;;;;;;;;;1472462;40;20030;-56
2021/06/27 05:14:52;;;;;;;14.20;7.47;;;;;;;;;;1471865;40;20030;-58
2021/06/27 05:15:54;;;;;;;13.40;7.05;;;;;;;;;;1471936;40;20053;-56
2021/06/27 05:16:56;;;;;;;14.95;7.25;;;;;;;;;;1472567;40;20026;-58
2021/06/27 05:17:57;;;;;;;9.77;6.72;;;;;;;;;;1472363;40;20037;-58
2021/06/27 05:18:59;;;;;;;10.50;6.47;;;;;;;;;;1472325;40;20041;-58
2021/06/27 05:20:00;;;;;;;11.32;5.95;;;;;;;;;;1472403;40;20283;-56
2021/06/27 05:21:03;;;;;;;11.18;6.50;;;;;;;;;;1472598;40;20029;-56
2021/06/27 05:22:04;;;;;;;11.15;6.40;;;;;;;;;;1472369;40;20394;-59
2021/06/27 05:23:05;;;;;;;10.48;6.50;;;;;;;;;;1472414;40;20092;-58
2021/06/27 05:24:07;;;;;;;11.52;7.40;;;;;;;;;;1472354;40;20057;-59
2021/06/27 05:25:10;;;;;;;12.23;6.30;;;;;;;;;;1472455;40;20149;-58
2021/06/27 05:26:11;;;;;;;12.60;6.90;;;;;;;;;;1472639;40;20026;-58
2021/06/27 05:27:13;;;;;;;10.77;7.15;;;;;;;;;;1472378;40;20390;-58
2021/06/27 05:28:14;;;;;;;9.75;6.32;;;;;;;;;;1472535;40;20026;-56
2021/06/27 05:29:15;;;;;;;12.07;6.40;;;;;;;;;;1472399;40;20037;-58
2021/06/27 05:30:18;;;;;;;11.77;6.28;;;;;;;;;;1472377;40;20309;-58
2021/06/27 05:31:20;;;;;;;8.90;6.18;;;;;;;;;;1472493;40;20037;-58
2021/06/27 05:32:21;;;;;;;12.75;6.63;;;;;;;;;;1472535;40;20060;-59
2021/06/27 05:33:23;;;;;;;8.32;6.57;;;;;;;;;;1472335;40;20026;-58
2021/06/27 05:34:23;;;;;;;9.40;6.30;;;;;;;;;;1472603;40;20033;-58
2021/06/27 05:35:25;;;;;;;10.10;6.65;;;;;;;;;;1472349;40;20306;-58
2021/06/27 05:36:26;;;;;;;8.63;5.70;;;;;;;;;;1472532;40;20030;-58
2021/06/27 05:37:28;;;;;;;10.35;5.78;;;;;;;;;;1472342;40;20448;-58
2021/06/27 05:38:29;;;;;;;8.88;5.70;;;;;;;;;;1472428;40;20090;-58
2021/06/27 05:39:31;;;;;;;11.27;5.72;;;;;;;;;;1472568;40;20155;-58
2021/06/27 05:40:32;;;;;;;9.25;6.28;;;;;;;;;;1472303;40;20026;-59
2021/06/27 05:41:34;;;;;;;13.50;5.82;;;;;;;;;;1472265;40;20030;-60
2021/06/27 05:42:35;;;;;;;10.70;6.68;;;;;;;;;;1472496;40;20038;-58
2021/06/27 05:43:37;;;;;;;9.85;5.82;;;;;;;;;;1472588;40;20040;-58
2021/06/27 05:44:38;;;;;;;11.52;6.15;;;;;;;;;;1472592;40;20029;-59
2021/06/27 05:45:41;;;;;;;11.15;6.18;;;;;;;;;;1472328;40;20037;-59
2021/06/27 05:46:42;;;;;;;11.60;5.82;;;;;;;;;;1472319;40;20157;-59
2021/06/27 05:47:44;;;;;;;6.65;5.40;;;;;;;;;;1472513;40;20026;-58
2021/06/27 05:48:45;;;;;;;8.23;5.38;;;;;;;;;;1472375;40;20290;-58
2021/06/27 05:49:47;;;;;;;7.47;5.70;;;;;;;;;;1472497;40;20042;-58
2021/06/27 05:50:47;;;;;;;7.95;5.60;;;;;;;;;;1472327;40;20034;-58
2021/06/27 05:51:49;;;;;;;8.00;5.20;;;;;;;;;;1472441;40;20037;-58
2021/06/27 05:52:50;;;;;;;7.55;5.43;;;;;;;;;;1472292;40;20390;-58
2021/06/27 05:53:52;;;;;;;8.43;5.63;;;;;;;;;;1472499;40;20034;-58
2021/06/27 05:54:53;;;;;;;7.20;5.20;;;;;;;;;;1472448;40;20053;-58
2021/06/27 05:57:10;;;;;;;9.90;5.68;;;;;;;;;;1472314;40;20157;-58
2021/06/27 05:58:11;;;;;;;10.10;5.38;;;;;;;;;;1472333;40;20298;-58
2021/06/27 05:59:13;;;;;;;6.82;5.13;;;;;;;;;;1472308;40;20030;-58
2021/06/27 06:00:15;;;;;;;15.10;6.47;;;;;;;;;;1472311;40;20026;-59
2021/06/27 06:01:19;;;;;;;6.93;5.28;;;;;;;;;;1472538;40;20120;-58
2021/06/27 06:02:19;;;;;;;7.50;4.80;;;;;;;;;;1472404;40;20034;-59
2021/06/27 06:03:21;;;;;;;6.80;4.82;;;;;;;;;;1472268;40;20298;-58
2021/06/27 06:04:22;;;;;;;6.68;4.45;;;;;;;;;;1472538;40;20030;-58
2021/06/27 06:05:24;;;;;;;5.78;4.43;;;;;;;;;;1472320;40;20353;-58